createdAt,value
2022-09-13T00:02:36.733Z,100.00
2022-09-13T00:05:42.414Z,100.00
2022-09-13T00:08:48.302Z,100.00
2022-09-13T00:11:53.936Z,99.92
2022-09-13T00:14:59.726Z,100.00
2022-09-13T00:18:05.488Z,100.00
2022-09-13T00:21:22.619Z,99.82
2022-09-13T00:24:28.064Z,98.60
2022-09-13T00:27:35.364Z,98.86
2022-09-13T00:30:40.831Z,99.27
2022-09-13T00:33:46.016Z,99.32
2022-09-13T00:36:51.982Z,98.13
2022-09-13T00:39:57.413Z,98.72
2022-09-13T00:43:02.976Z,98.54
2022-09-13T00:46:09.400Z,98.96
2022-09-13T00:49:23.327Z,99.10
2022-09-13T00:52:32.936Z,97.98
2022-09-13T00:55:46.411Z,99.20
2022-09-13T00:59:07.288Z,99.01
2022-09-13T01:02:14.099Z,98.65
2022-09-13T01:05:23.864Z,98.83
2022-09-13T01:08:31.642Z,98.57
2022-09-13T01:12:04.128Z,98.79
2022-09-13T01:15:10.663Z,98.15
2022-09-13T01:18:16.566Z,98.68
2022-09-13T01:21:40.599Z,99.03
2022-09-13T01:25:21.382Z,98.11
2022-09-13T01:29:03.767Z,97.68
2022-09-13T01:32:15.012Z,98.86
2022-09-13T01:35:26.200Z,100.00
2022-09-13T01:38:57.368Z,100.00
2022-09-13T01:42:41.703Z,100.00
2022-09-13T01:46:07.045Z,100.00
2022-09-13T01:49:40.242Z,100.00
2022-09-13T01:53:12.115Z,100.00
2022-09-13T01:56:34.058Z,100.00
2022-09-13T01:59:53.307Z,100.00
2022-09-13T02:03:13.446Z,100.00
2022-09-13T02:06:23.728Z,100.00
2022-09-13T02:09:35.313Z,100.00
2022-09-13T02:12:43.937Z,100.00
2022-09-13T02:16:00.052Z,100.00
2022-09-13T02:19:19.387Z,100.00
2022-09-13T02:22:39.198Z,100.00
2022-09-13T02:25:49.434Z,100.00
2022-09-13T02:28:58.464Z,100.00
2022-09-13T02:32:33.690Z,100.00
2022-09-13T02:35:51.594Z,100.00
2022-09-13T02:39:01.699Z,100.00
2022-09-13T02:42:32.163Z,100.00
2022-09-13T02:45:49.012Z,100.00
2022-09-13T02:49:20.068Z,100.00
2022-09-13T02:52:25.654Z,100.00
2022-09-13T02:55:49.833Z,100.00
2022-09-13T02:59:12.652Z,100.00
2022-09-13T03:02:22.427Z,100.00
2022-09-13T03:05:27.724Z,100.00
2022-09-13T03:08:35.110Z,100.00
2022-09-13T03:11:46.242Z,99.93
2022-09-13T03:15:05.450Z,100.00
2022-09-13T03:18:38.180Z,100.00
2022-09-13T03:22:02.043Z,100.00
2022-09-13T03:25:23.077Z,100.00
2022-09-13T03:28:46.858Z,100.00
2022-09-13T03:32:16.896Z,100.00
2022-09-13T03:35:30.071Z,100.00
2022-09-13T03:38:44.336Z,100.00
2022-09-13T03:41:57.699Z,100.00
2022-09-13T03:45:05.808Z,100.00
2022-09-13T03:48:12.887Z,100.00
2022-09-13T03:51:19.265Z,100.00
2022-09-13T03:54:32.900Z,100.00
2022-09-13T03:57:38.622Z,100.00
2022-09-13T04:00:45.671Z,100.00
2022-09-13T04:03:56.552Z,100.00
2022-09-13T04:07:04.418Z,100.00
2022-09-13T04:10:13.687Z,100.00
2022-09-13T04:13:21.302Z,100.00
2022-09-13T04:16:26.832Z,100.00
2022-09-13T04:19:32.560Z,100.00
2022-09-13T04:22:38.609Z,100.00
2022-09-13T04:25:44.449Z,100.00
2022-09-13T04:28:50.169Z,100.00
2022-09-13T04:31:56.553Z,100.00
2022-09-13T04:35:02.509Z,100.00
2022-09-13T04:38:09.514Z,100.00
2022-09-13T04:41:16.461Z,100.00
2022-09-13T04:44:24.565Z,100.00
2022-09-13T04:47:30.696Z,100.00
2022-09-13T04:50:36.204Z,100.00
2022-09-13T04:53:41.850Z,100.00
2022-09-13T04:56:47.722Z,100.00
2022-09-13T04:59:53.455Z,100.00
2022-09-13T05:02:59.099Z,100.00
2022-09-13T05:06:06.677Z,100.00
2022-09-13T05:09:14.925Z,100.00
2022-09-13T05:12:20.405Z,100.00
2022-09-13T05:15:25.683Z,100.00
2022-09-13T05:18:34.115Z,100.00
2022-09-13T05:21:39.710Z,100.00
2022-09-13T05:24:44.857Z,100.00
2022-09-13T05:27:50.524Z,100.00
2022-09-13T05:31:01.394Z,100.00
2022-09-13T05:34:08.421Z,100.00
2022-09-13T05:37:13.966Z,100.00
2022-09-13T05:40:19.633Z,100.00
2022-09-13T05:43:28.114Z,100.00
2022-09-13T05:46:34.139Z,100.00
2022-09-13T05:49:56.703Z,100.00
2022-09-13T05:53:05.014Z,100.00
2022-09-13T05:56:16.699Z,100.00
2022-09-13T05:59:21.923Z,100.00
2022-09-13T06:02:27.103Z,100.00
2022-09-13T06:05:32.995Z,100.00
2022-09-13T06:08:38.456Z,100.00
2022-09-13T06:11:44.217Z,100.00
2022-09-13T06:14:49.906Z,99.58
2022-09-13T06:17:55.558Z,99.46
2022-09-13T06:21:07.903Z,98.94
2022-09-13T06:24:13.370Z,98.72
2022-09-13T06:27:18.824Z,99.84
2022-09-13T06:30:24.589Z,98.88
2022-09-13T06:33:30.052Z,96.73
2022-09-13T06:36:35.578Z,96.01
2022-09-13T06:39:42.008Z,94.54
2022-09-13T06:42:47.399Z,93.88
2022-09-13T06:45:54.439Z,94.01
2022-09-13T06:49:09.095Z,94.45
2022-09-13T06:52:14.494Z,93.58
2022-09-13T06:55:20.427Z,94.09
2022-09-13T06:58:25.813Z,93.89
2022-09-13T07:01:34.415Z,93.92
2022-09-13T07:04:40.229Z,94.90
2022-09-13T07:07:45.541Z,93.78
2022-09-13T07:10:50.831Z,94.33
2022-09-13T07:13:59.081Z,95.61
2022-09-13T07:17:05.166Z,96.13
2022-09-13T07:20:11.181Z,96.32
2022-09-13T07:23:16.771Z,96.12
2022-09-13T07:26:23.486Z,95.85
2022-09-13T07:29:29.082Z,95.98
2022-09-13T07:32:34.654Z,97.04
2022-09-13T07:35:40.015Z,96.61
2022-09-13T07:38:45.918Z,97.40
2022-09-13T07:41:52.266Z,96.82
2022-09-13T07:44:57.961Z,96.38
2022-09-13T07:48:03.932Z,96.70
2022-09-13T07:51:21.371Z,96.14
2022-09-13T07:54:26.992Z,96.25
2022-09-13T07:57:32.479Z,95.46
2022-09-13T08:00:37.774Z,95.69
2022-09-13T08:03:44.464Z,95.16
2022-09-13T08:06:50.293Z,95.01
2022-09-13T08:09:57.234Z,94.44
2022-09-13T08:13:03.263Z,95.02
2022-09-13T08:16:08.963Z,94.01
2022-09-13T08:19:17.655Z,94.44
2022-09-13T08:22:23.257Z,94.37
2022-09-13T08:25:28.767Z,94.05
2022-09-13T08:28:36.319Z,93.24
2022-09-13T08:31:42.346Z,93.75
2022-09-13T08:34:47.459Z,92.04
2022-09-13T08:37:52.571Z,91.90
2022-09-13T08:41:06.333Z,91.36
2022-09-13T08:44:28.859Z,91.30
2022-09-13T08:47:42.963Z,90.76
2022-09-13T08:51:02.965Z,91.30
2022-09-13T08:54:14.528Z,89.44
2022-09-13T08:57:41.822Z,89.17
2022-09-13T09:00:59.388Z,89.71
2022-09-13T09:04:15.490Z,89.60
2022-09-13T09:07:41.183Z,88.17
2022-09-13T09:10:50.347Z,87.67
2022-09-13T09:14:44.692Z,86.34
2022-09-13T09:18:01.197Z,85.98
2022-09-13T09:21:15.517Z,86.88
2022-09-13T09:24:26.038Z,85.53
2022-09-13T09:27:32.447Z,85.14
2022-09-13T09:30:45.809Z,86.26
2022-09-13T09:34:11.172Z,85.17
2022-09-13T09:37:27.499Z,84.12
2022-09-13T09:40:38.524Z,84.60
2022-09-13T09:43:57.418Z,86.32
2022-09-13T09:47:43.376Z,85.50
2022-09-13T09:50:53.306Z,85.11
2022-09-13T09:54:06.275Z,84.64
2022-09-13T09:57:13.761Z,84.44
2022-09-13T10:00:20.468Z,84.18
2022-09-13T10:03:32.441Z,82.99
2022-09-13T10:06:40.697Z,83.79
2022-09-13T10:10:17.649Z,84.30
2022-09-13T10:13:27.481Z,83.62
2022-09-13T10:16:36.819Z,82.94
2022-09-13T10:19:54.382Z,81.38
2022-09-13T10:23:20.870Z,77.12
2022-09-13T10:26:27.232Z,81.03
2022-09-13T10:29:33.822Z,81.25
2022-09-13T10:32:39.343Z,82.71
2022-09-13T10:35:49.379Z,80.34
2022-09-13T10:39:00.117Z,79.69
2022-09-13T10:42:08.780Z,79.28
2022-09-13T10:45:24.123Z,77.80
2022-09-13T10:48:32.221Z,78.68
2022-09-13T10:51:38.927Z,78.47
2022-09-13T10:54:44.845Z,77.11
2022-09-13T10:57:56.239Z,78.77
2022-09-13T11:01:22.732Z,79.15
2022-09-13T11:05:01.613Z,78.25
2022-09-13T11:08:27.069Z,77.29
2022-09-13T11:11:54.008Z,78.40
2022-09-13T11:15:12.997Z,77.90
2022-09-13T11:18:54.874Z,77.38
2022-09-13T11:22:23.249Z,76.30
2022-09-13T11:25:51.776Z,76.71
2022-09-13T11:29:05.874Z,76.16
2022-09-13T11:32:41.576Z,76.48
2022-09-13T11:36:13.145Z,76.73
2022-09-13T11:40:00.332Z,75.01
2022-09-13T11:43:20.329Z,75.75
2022-09-13T11:46:52.101Z,75.58
2022-09-13T11:50:45.067Z,74.40
2022-09-13T11:54:12.900Z,73.81
2022-09-13T11:57:33.350Z,71.00
2022-09-13T12:01:01.534Z,72.06
2022-09-13T12:04:33.789Z,72.61
2022-09-13T12:07:45.148Z,70.43
2022-09-13T12:10:56.663Z,69.33
2022-09-13T12:14:05.679Z,69.64
2022-09-13T12:17:23.762Z,67.96
2022-09-13T12:20:38.624Z,67.55
2022-09-13T12:24:08.230Z,67.36
2022-09-13T12:27:40.134Z,66.95
2022-09-13T12:30:54.115Z,65.86
2022-09-13T12:34:01.192Z,66.61
2022-09-13T12:37:34.392Z,64.85
2022-09-13T12:41:04.220Z,65.73
2022-09-13T12:44:32.947Z,64.36
2022-09-13T12:47:50.439Z,64.90
2022-09-13T12:51:23.330Z,65.72
2022-09-13T12:54:48.345Z,62.34
2022-09-13T12:58:08.688Z,62.79
2022-09-13T13:01:21.793Z,61.81
2022-09-13T13:04:32.680Z,61.91
2022-09-13T13:07:38.659Z,64.00
2022-09-13T13:10:44.210Z,62.33
2022-09-13T13:14:01.763Z,62.69
2022-09-13T13:17:42.478Z,62.01
2022-09-13T13:21:06.865Z,62.92
2022-09-13T13:24:21.038Z,62.23
2022-09-13T13:27:43.802Z,61.97
2022-09-13T13:30:56.983Z,62.29
2022-09-13T13:34:06.767Z,62.85
2022-09-13T13:37:12.251Z,62.33
2022-09-13T13:40:26.477Z,62.36
2022-09-13T13:43:34.520Z,62.52
2022-09-13T13:46:40.579Z,62.75
2022-09-13T13:49:53.716Z,63.23
2022-09-13T13:53:15.540Z,59.50
2022-09-13T13:56:34.345Z,60.71
2022-09-13T13:59:40.422Z,60.93
2022-09-13T14:02:54.547Z,60.08
2022-09-13T14:06:02.941Z,59.53
2022-09-13T14:09:37.298Z,59.10
2022-09-13T14:13:24.626Z,59.94
2022-09-13T14:16:51.357Z,60.49
2022-09-13T14:20:05.893Z,59.83
2022-09-13T14:23:13.815Z,60.37
2022-09-13T14:26:19.316Z,60.72
2022-09-13T14:29:26.631Z,61.50
2022-09-13T14:32:42.799Z,61.14
2022-09-13T14:36:01.245Z,59.83
2022-09-13T14:39:10.102Z,60.86
2022-09-13T14:42:16.214Z,61.59
2022-09-13T14:45:36.314Z,62.68
2022-09-13T14:48:51.825Z,60.81
2022-09-13T14:52:05.155Z,60.10
2022-09-13T14:55:17.428Z,61.60
2022-09-13T14:58:28.986Z,61.23
2022-09-13T15:01:36.659Z,61.31
2022-09-13T15:04:51.330Z,61.04
2022-09-13T15:07:56.717Z,62.07
2022-09-13T15:11:06.046Z,60.35
2022-09-13T15:14:26.001Z,60.90
2022-09-13T15:17:31.070Z,62.59
2022-09-13T15:21:00.252Z,62.83
2022-09-13T15:24:05.709Z,62.32
2022-09-13T15:27:44.440Z,61.49
2022-09-13T15:30:50.307Z,61.39
2022-09-13T15:34:17.965Z,61.36
2022-09-13T15:37:34.768Z,62.46
2022-09-13T15:41:12.386Z,63.68
2022-09-13T15:44:17.665Z,63.55
2022-09-13T15:47:23.045Z,63.05
2022-09-13T15:50:31.378Z,62.20
2022-09-13T15:53:39.355Z,63.52
2022-09-13T15:56:47.679Z,65.97
2022-09-13T15:59:54.921Z,64.36
2022-09-13T16:03:00.420Z,65.38
2022-09-13T16:06:09.620Z,65.55
2022-09-13T16:09:21.938Z,66.67
2022-09-13T16:12:27.980Z,66.99
2022-09-13T16:15:33.421Z,68.00
2022-09-13T16:18:41.123Z,68.79
2022-09-13T16:21:47.724Z,69.68
2022-09-13T16:24:52.952Z,70.81
2022-09-13T16:27:59.423Z,71.20
2022-09-13T16:31:04.896Z,71.35
2022-09-13T16:34:10.136Z,71.16
2022-09-13T16:37:17.964Z,71.13
2022-09-13T16:40:24.379Z,72.24
2022-09-13T16:43:29.552Z,72.70
2022-09-13T16:46:35.805Z,71.67
2022-09-13T16:49:41.698Z,72.00
2022-09-13T16:52:47.470Z,73.13
2022-09-13T16:55:52.920Z,72.67
2022-09-13T16:58:58.485Z,72.55
2022-09-13T17:02:04.277Z,72.62
2022-09-13T17:05:11.401Z,72.93
2022-09-13T17:08:16.781Z,75.04
2022-09-13T17:11:25.038Z,77.19
2022-09-13T17:14:30.774Z,77.95
2022-09-13T17:17:36.832Z,78.52
2022-09-13T17:20:50.113Z,79.59
2022-09-13T17:23:56.020Z,79.38
2022-09-13T17:27:01.245Z,79.44
2022-09-13T17:30:11.677Z,79.22
2022-09-13T17:33:17.008Z,79.26
2022-09-13T17:36:23.029Z,80.67
2022-09-13T17:39:28.544Z,79.30
2022-09-13T17:42:34.201Z,79.66
2022-09-13T17:45:39.971Z,81.32
2022-09-13T17:48:45.522Z,83.15
2022-09-13T17:51:52.278Z,83.46
2022-09-13T17:54:57.431Z,84.11
2022-09-13T17:58:03.066Z,84.30
2022-09-13T18:01:10.394Z,84.91
2022-09-13T18:04:18.856Z,84.38
2022-09-13T18:07:24.570Z,84.49
2022-09-13T18:10:53.529Z,83.73
2022-09-13T18:13:56.969Z,82.36
2022-09-13T18:17:02.168Z,82.25
2022-09-13T18:20:07.986Z,81.87
2022-09-13T18:23:13.846Z,82.55
2022-09-13T18:26:25.072Z,80.98
2022-09-13T18:29:32.100Z,79.48
2022-09-13T18:32:37.636Z,78.84
2022-09-13T18:35:43.561Z,78.85
2022-09-13T18:38:50.108Z,79.30
2022-09-13T18:41:56.159Z,79.77
2022-09-13T18:45:02.688Z,80.69
2022-09-13T18:48:08.247Z,80.87
2022-09-13T18:51:16.722Z,81.46
2022-09-13T18:54:22.871Z,82.18
2022-09-13T18:57:28.824Z,82.52
2022-09-13T19:00:33.834Z,82.53
2022-09-13T19:03:40.908Z,83.39
2022-09-13T19:06:56.389Z,84.19
2022-09-13T19:10:02.002Z,84.75
2022-09-13T19:13:08.616Z,85.25
2022-09-13T19:16:19.214Z,85.01
2022-09-13T19:19:25.889Z,86.46
2022-09-13T19:22:31.660Z,88.80
2022-09-13T19:25:37.461Z,88.02
2022-09-13T19:28:49.205Z,87.17
2022-09-13T19:31:56.476Z,87.82
2022-09-13T19:35:02.322Z,88.30
2022-09-13T19:38:08.444Z,88.52
2022-09-13T19:41:18.799Z,89.32
2022-09-13T19:44:24.627Z,89.10
2022-09-13T19:48:19.396Z,89.59
2022-09-13T19:50:56.455Z,89.77
2022-09-13T19:54:03.030Z,90.30
2022-09-13T19:57:10.401Z,90.87
2022-09-13T20:00:16.398Z,91.47
2022-09-13T20:03:21.874Z,90.77
2022-09-13T20:06:30.641Z,92.60
2022-09-13T20:09:36.300Z,93.73
2022-09-13T20:12:42.403Z,93.39
2022-09-13T20:15:48.993Z,94.37
2022-09-13T20:19:00.029Z,95.05
2022-09-13T20:22:05.600Z,94.69
2022-09-13T20:25:11.801Z,95.37
2022-09-13T20:28:17.818Z,94.76
2022-09-13T20:31:24.768Z,96.01
2022-09-13T20:34:30.452Z,96.14
2022-09-13T20:37:36.836Z,96.93
2022-09-13T20:40:42.957Z,97.40
2022-09-13T20:43:49.247Z,98.00
2022-09-13T20:46:54.994Z,98.22
2022-09-13T20:50:01.538Z,98.45
2022-09-13T20:53:07.599Z,99.24
2022-09-13T20:56:16.139Z,99.61
2022-09-13T20:59:23.049Z,99.91
2022-09-13T21:02:29.657Z,100.00
2022-09-13T21:05:37.997Z,100.00
2022-09-13T21:08:44.744Z,100.00
2022-09-13T21:11:50.393Z,100.00
2022-09-13T21:14:56.295Z,100.00
2022-09-13T21:18:02.078Z,100.00
2022-09-13T21:21:09.418Z,100.00
2022-09-13T21:24:15.164Z,100.00
2022-09-13T21:27:21.492Z,100.00
2022-09-13T21:30:27.028Z,100.00
2022-09-13T21:33:33.299Z,100.00
2022-09-13T21:36:39.782Z,100.00
2022-09-13T21:39:45.842Z,100.00
2022-09-13T21:42:51.861Z,100.00
2022-09-13T21:46:07.208Z,100.00
2022-09-13T21:49:14.289Z,100.00
2022-09-13T21:52:20.184Z,100.00
2022-09-13T21:55:27.325Z,100.00
2022-09-13T21:58:33.984Z,100.00
2022-09-13T22:01:41.852Z,100.00
2022-09-13T22:04:47.300Z,100.00
2022-09-13T22:07:53.424Z,100.00
2022-09-13T22:11:08.195Z,100.00
2022-09-13T22:14:20.676Z,100.00
2022-09-13T22:17:26.244Z,100.00
2022-09-13T22:20:31.957Z,100.00
2022-09-13T22:23:40.197Z,100.00
2022-09-13T22:26:47.148Z,100.00
2022-09-13T22:29:52.588Z,100.00
2022-09-13T22:32:58.237Z,100.00
2022-09-13T22:36:07.554Z,100.00
2022-09-13T22:39:15.887Z,100.00
2022-09-13T22:42:21.659Z,100.00
2022-09-13T22:45:27.751Z,100.00
2022-09-13T22:48:35.834Z,100.00
2022-09-13T22:51:41.294Z,100.00
2022-09-13T22:54:47.223Z,100.00
2022-09-13T22:57:53.411Z,100.00
2022-09-13T23:01:08.611Z,100.00
2022-09-13T23:04:15.173Z,100.00
2022-09-13T23:07:21.006Z,100.00
2022-09-13T23:10:26.534Z,100.00
2022-09-13T23:13:32.139Z,100.00
2022-09-13T23:16:42.928Z,100.00
2022-09-13T23:19:48.442Z,100.00
2022-09-13T23:22:54.312Z,100.00
2022-09-13T23:26:09.426Z,100.00
2022-09-13T23:29:18.417Z,100.00
2022-09-13T23:32:23.908Z,100.00
2022-09-13T23:35:30.045Z,100.00
2022-09-13T23:38:36.049Z,100.00
2022-09-13T23:41:41.331Z,100.00
2022-09-13T23:44:47.092Z,100.00
2022-09-13T23:47:52.605Z,100.00
2022-09-13T23:51:02.874Z,100.00
2022-09-13T23:54:08.895Z,100.00
2022-09-13T23:57:14.393Z,100.00
